Time;durP1;ratioP1;P1;durP2;ratioP2;P2;SDS_P1;SDS_P2;PMS_P1;PMS_P2;Temp;Humidity;BMP_temperature;BMP_pressure;BME280_temperature;BME280_humidity;BME280_pressure;Samples;Min_cycle;Max_cycle;Signal;HPM_P1;HPM_P2
2023/03/19 00:01:57;;;;;;;26.00;23.23;;;10.30;99.90;;;;;;4941237;28;20074;-67
2023/03/19 00:04:24;;;;;;;26.20;23.15;;;10.30;99.90;;;;;;4948952;28;20039;-68
2023/03/19 00:06:51;;;;;;;24.83;22.20;;;10.20;99.90;;;;;;4959162;28;20046;-68
2023/03/19 00:09:18;;;;;;;25.48;22.90;;;10.30;99.90;;;;;;4962320;28;20038;-67
2023/03/19 00:11:44;;;;;;;24.95;22.30;;;10.30;99.90;;;;;;4957176;28;20098;-68
2023/03/19 00:14:10;;;;;;;23.10;20.70;;;10.30;99.90;;;;;;4963519;28;20511;-68
2023/03/19 00:16:36;;;;;;;24.30;21.77;;;10.30;99.90;;;;;;4962969;28;20035;-67
2023/03/19 00:19:02;;;;;;;23.38;21.17;;;10.20;99.90;;;;;;4958085;28;20051;-68
2023/03/19 00:21:28;;;;;;;24.50;21.88;;;10.20;99.90;;;;;;4947300;28;20079;-68
2023/03/19 00:23:59;;;;;;;24.20;21.33;;;10.30;99.90;;;;;;4952184;28;20059;-67
2023/03/19 00:26:26;;;;;;;24.80;22.10;;;10.30;99.90;;;;;;4963120;28;20399;-69
2023/03/19 00:28:52;;;;;;;23.83;21.33;;;10.30;99.90;;;;;;4957468;28;20081;-68
2023/03/19 00:31:18;;;;;;;23.85;21.42;;;10.30;99.90;;;;;;4955919;28;20124;-67
2023/03/19 00:33:43;;;;;;;22.90;20.60;;;10.20;99.90;;;;;;4954586;28;20035;-68
2023/03/19 00:36:09;;;;;;;22.60;20.17;;;10.30;99.90;;;;;;4959700;28;20411;-68
2023/03/19 00:38:36;;;;;;;22.20;20.10;;;10.20;99.90;;;;;;4960696;28;20042;-67
2023/03/19 00:41:04;;;;;;;21.75;19.60;;;10.20;99.90;;;;;;4945527;28;20034;-68
2023/03/19 00:43:29;;;;;;;22.50;19.98;;;10.20;99.90;;;;;;4957440;28;20038;-67
2023/03/19 00:45:55;;;;;;;23.20;20.83;;;10.20;99.90;;;;;;4958530;28;20427;-68
2023/03/19 00:48:21;;;;;;;24.05;20.33;;;10.20;99.90;;;;;;4941482;28;20063;-67
2023/03/19 00:50:47;;;;;;;24.55;21.95;;;10.30;99.90;;;;;;4961674;28;20455;-68
2023/03/19 00:53:13;;;;;;;23.95;21.52;;;10.20;99.90;;;;;;4961420;28;20047;-68
2023/03/19 00:55:39;;;;;;;23.45;21.05;;;10.20;99.90;;;;;;4963527;28;20106;-68
2023/03/19 00:58:05;;;;;;;23.25;20.77;;;10.20;99.90;;;;;;4964028;28;20119;-67
2023/03/19 01:00:35;;;;;;;22.65;20.42;;;10.20;99.90;;;;;;4943154;28;20042;-67
2023/03/19 01:03:01;;;;;;;21.73;19.52;;;10.20;99.90;;;;;;4964234;28;20521;-68
2023/03/19 01:05:27;;;;;;;23.42;21.15;;;10.20;99.90;;;;;;4962092;28;20115;-68
2023/03/19 01:07:53;;;;;;;22.67;20.13;;;10.20;99.90;;;;;;4962935;28;20046;-68
2023/03/19 01:10:21;;;;;;;20.70;18.50;;;10.20;99.90;;;;;;4954097;28;20054;-67
2023/03/19 01:12:47;;;;;;;20.23;18.13;;;10.20;99.90;;;;;;4966102;28;20063;-68
2023/03/19 01:15:13;;;;;;;19.88;17.70;;;10.20;99.90;;;;;;4962048;28;20043;-68
2023/03/19 01:17:38;;;;;;;19.80;16.30;;;10.30;99.90;;;;;;4959580;28;20035;-69
2023/03/19 01:20:11;;;;;;;17.45;15.65;;;10.30;99.90;;;;;;4955268;28;20439;-69
2023/03/19 01:22:39;;;;;;;17.02;15.38;;;10.30;99.90;;;;;;4960531;28;20050;-70
2023/03/19 01:25:05;;;;;;;17.27;14.75;;;10.30;99.90;;;;;;4961064;28;20061;-70
2023/03/19 01:27:31;;;;;;;14.85;13.32;;;10.30;99.90;;;;;;4961982;28;20126;-70
2023/03/19 01:29:57;;;;;;;16.40;14.73;;;10.30;99.90;;;;;;4965648;28;20523;-71
2023/03/19 01:32:22;;;;;;;15.07;13.65;;;10.30;99.90;;;;;;4957227;28;20047;-71
2023/03/19 01:34:48;;;;;;;14.70;12.57;;;10.30;99.90;;;;;;4960497;28;20043;-70
2023/03/19 01:37:14;;;;;;;14.02;12.60;;;10.20;99.90;;;;;;4957909;28;20043;-70
2023/03/19 01:39:40;;;;;;;13.50;12.10;;;10.20;99.90;;;;;;4958720;28;20049;-71
2023/03/19 01:42:07;;;;;;;13.60;11.93;;;10.20;99.90;;;;;;4960065;28;20062;-70
2023/03/19 01:44:35;;;;;;;13.20;11.80;;;10.20;99.90;;;;;;4963157;28;20422;-70
2023/03/19 01:47:14;;;;;;;16.98;10.80;;;10.20;99.90;;;;;;4954841;28;20055;-70
2023/03/19 01:49:40;;;;;;;12.13;9.55;;;10.20;99.90;;;;;;4953040;28;20040;-70
2023/03/19 01:52:07;;;;;;;10.60;9.20;;;10.20;99.90;;;;;;4948233;28;20043;-70
2023/03/19 01:54:35;;;;;;;9.55;7.68;;;10.10;99.90;;;;;;4953146;28;20105;-70
2023/03/19 01:57:10;;;;;;;8.93;8.00;;;10.10;99.90;;;;;;4949491;28;20050;-70
2023/03/19 01:59:40;;;;;;;8.30;7.20;;;10.10;99.90;;;;;;4960930;28;20038;-70
2023/03/19 02:02:16;;;;;;;8.60;7.15;;;10.10;99.90;;;;;;4958721;28;20047;-70
2023/03/19 02:04:45;;;;;;;9.38;7.43;;;10.10;99.90;;;;;;4962107;28;20043;-70
2023/03/19 02:07:12;;;;;;;8.63;7.18;;;10.00;99.90;;;;;;4956077;28;20175;-70
2023/03/19 02:09:39;;;;;;;7.82;6.40;;;10.00;99.90;;;;;;4962926;28;20043;-70
2023/03/19 02:12:07;;;;;;;9.20;6.72;;;10.00;99.90;;;;;;4959872;28;20069;-70
2023/03/19 02:14:33;;;;;;;7.13;6.43;;;10.00;99.90;;;;;;4957935;28;20035;-71
2023/03/19 02:16:59;;;;;;;7.30;6.00;;;9.90;99.90;;;;;;4958686;28;20051;-70
2023/03/19 02:19:52;;;;;;;8.68;6.45;;;9.90;99.90;;;;;;4966298;28;20502;-70
2023/03/19 02:22:23;;;;;;;7.18;6.03;;;9.90;99.90;;;;;;4946453;28;20043;-70
2023/03/19 02:24:58;;;;;;;7.07;6.32;;;9.80;99.90;;;;;;4966656;28;20118;-70
2023/03/19 02:27:23;;;;;;;;;;;9.80;99.90;;;;;;4958487;28;20201;-70
2023/03/19 02:29:49;;;;;;;8.50;6.05;;;9.70;99.90;;;;;;4975185;28;20012;-69
2023/03/19 02:32:15;;;;;;;7.45;5.53;;;9.70;99.90;;;;;;4957846;28;20090;-70
2023/03/19 02:34:42;;;;;;;6.25;5.65;;;9.80;99.90;;;;;;4956707;28;20407;-69
2023/03/19 02:37:14;;;;;;;8.93;5.85;;;9.80;99.90;;;;;;4966346;28;20114;-69
2023/03/19 02:40:04;;;;;;;7.40;5.63;;;9.80;99.90;;;;;;4961934;28;20038;-68
2023/03/19 02:42:30;;;;;;;6.10;5.25;;;9.80;99.90;;;;;;4972467;28;20045;-69
2023/03/19 02:44:57;;;;;;;7.60;5.32;;;9.80;99.90;;;;;;4946618;28;20050;-69
2023/03/19 02:47:23;;;;;;;6.50;5.90;;;9.80;99.90;;;;;;4954958;28;20039;-69
2023/03/19 02:49:49;;;;;;;9.18;5.72;;;9.80;99.90;;;;;;4941182;28;20666;-69
2023/03/19 02:52:15;;;;;;;7.43;5.72;;;9.80;99.90;;;;;;4957298;28;20079;-69
2023/03/19 02:54:41;;;;;;;7.43;6.05;;;9.80;99.90;;;;;;4957239;28;20047;-69
2023/03/19 02:57:07;;;;;;;5.60;5.10;;;9.80;99.90;;;;;;4962396;28;20398;-69
2023/03/19 02:59:33;;;;;;;7.72;5.32;;;9.80;99.90;;;;;;4978871;28;20070;-70
2023/03/19 03:01:59;;;;;;;7.07;5.03;;;9.70;99.90;;;;;;4959996;28;20093;-69
2023/03/19 03:04:25;;;;;;;9.98;4.70;;;9.70;99.90;;;;;;4958274;28;20054;-70
2023/03/19 03:06:51;;;;;;;5.45;4.43;;;9.70;99.90;;;;;;4958452;28;20339;-69
2023/03/19 03:09:18;;;;;;;9.30;4.47;;;9.70;99.90;;;;;;4958614;28;20039;-69
2023/03/19 03:11:44;;;;;;;4.32;3.92;;;9.70;99.90;;;;;;4961453;28;20130;-69
2023/03/19 03:14:10;;;;;;;6.78;4.43;;;9.60;99.90;;;;;;4966776;28;20467;-70
2023/03/19 03:16:36;;;;;;;5.65;4.15;;;9.60;99.90;;;;;;4948595;28;20105;-68
2023/03/19 03:19:03;;;;;;;4.68;4.07;;;9.50;99.90;;;;;;4963234;28;20145;-68
2023/03/19 03:21:29;;;;;;;7.10;4.68;;;9.50;99.90;;;;;;4964161;28;20609;-68
2023/03/19 03:23:55;;;;;;;7.72;3.72;;;9.50;99.90;;;;;;4967765;28;20126;-69
2023/03/19 03:26:21;;;;;;;6.10;4.03;;;9.50;99.90;;;;;;4963725;28;20121;-68
2023/03/19 03:28:47;;;;;;;7.43;4.40;;;9.50;99.90;;;;;;4973626;28;20035;-69
2023/03/19 03:31:13;;;;;;;6.88;4.38;;;9.50;99.90;;;;;;4958259;28;20236;-69
2023/03/19 03:33:39;;;;;;;4.55;3.88;;;9.50;99.90;;;;;;4954684;28;20053;-69
2023/03/19 03:36:06;;;;;;;7.38;4.07;;;9.50;99.90;;;;;;4959830;28;20043;-69
2023/03/19 03:38:32;;;;;;;4.75;3.85;;;9.50;99.90;;;;;;4960567;28;20125;-68
2023/03/19 03:40:58;;;;;;;5.97;3.97;;;9.50;99.90;;;;;;4956705;28;20410;-69
2023/03/19 03:43:24;;;;;;;5.47;4.60;;;9.50;99.90;;;;;;4954494;28;20050;-69
2023/03/19 03:45:50;;;;;;;5.15;4.65;;;9.50;99.90;;;;;;4945339;28;20117;-69
2023/03/19 03:48:16;;;;;;;4.68;4.22;;;9.60;99.90;;;;;;4955894;28;20039;-68
2023/03/19 03:50:42;;;;;;;5.57;4.22;;;9.60;99.90;;;;;;4957997;28;20055;-69
2023/03/19 03:53:09;;;;;;;5.28;4.78;;;9.60;99.90;;;;;;4966974;28;20166;-69
2023/03/19 03:55:35;;;;;;;6.78;4.57;;;9.60;99.90;;;;;;4961969;28;20068;-69
2023/03/19 03:58:01;;;;;;;8.00;4.88;;;9.60;99.90;;;;;;4947821;28;20047;-68
2023/03/19 04:00:27;;;;;;;7.10;4.82;;;9.60;99.90;;;;;;4970798;28;20094;-69
2023/03/19 04:02:53;;;;;;;6.70;5.38;;;9.60;99.90;;;;;;4954538;28;20051;-69
2023/03/19 04:05:19;;;;;;;6.10;4.80;;;9.60;99.90;;;;;;4962067;28;20127;-69
2023/03/19 04:07:45;;;;;;;8.50;4.82;;;9.70;99.90;;;;;;4958371;28;20059;-70
2023/03/19 04:10:11;;;;;;;5.18;4.68;;;9.70;99.90;;;;;;4962209;28;20064;-68
2023/03/19 04:12:38;;;;;;;7.00;5.45;;;9.70;99.90;;;;;;4955996;28;20342;-69
2023/03/19 04:15:06;;;;;;;7.00;5.25;;;9.70;99.90;;;;;;4976223;28;20449;-69
2023/03/19 04:17:32;;;;;;;6.60;5.38;;;9.70;99.90;;;;;;4958036;28;20523;-68
2023/03/19 04:19:58;;;;;;;7.55;6.00;;;9.70;99.90;;;;;;4951759;28;20107;-68
2023/03/19 04:22:24;;;;;;;9.40;5.60;;;9.70;99.90;;;;;;4957195;28;20047;-68
2023/03/19 04:24:50;;;;;;;7.57;6.80;;;9.80;99.90;;;;;;4960909;28;20129;-69
2023/03/19 04:27:15;;;;;;;7.45;5.93;;;9.70;99.90;;;;;;4943417;28;20047;-69
2023/03/19 04:29:41;;;;;;;8.57;6.45;;;9.80;99.90;;;;;;4959187;28;20052;-69
2023/03/19 04:32:07;;;;;;;9.25;5.93;;;9.70;99.90;;;;;;4968110;28;20402;-69
2023/03/19 04:34:33;;;;;;;7.93;6.22;;;9.70;99.90;;;;;;4964038;28;20093;-68
2023/03/19 04:36:59;;;;;;;8.52;7.10;;;9.60;99.90;;;;;;4962278;28;20043;-69
2023/03/19 04:39:25;;;;;;;8.10;6.72;;;9.60;99.90;;;;;;4957109;28;20038;-69
2023/03/19 04:41:51;;;;;;;8.50;7.10;;;9.50;99.90;;;;;;4978245;28;20046;-68
2023/03/19 04:44:17;;;;;;;7.18;6.57;;;9.40;99.90;;;;;;4961422;28;20035;-68
2023/03/19 04:46:44;;;;;;;7.03;6.32;;;9.40;99.90;;;;;;4981536;28;20495;-69
2023/03/19 04:49:11;;;;;;;7.50;6.50;;;9.30;99.90;;;;;;4954641;28;20047;-69
2023/03/19 04:51:37;;;;;;;7.00;5.95;;;9.30;99.90;;;;;;4945721;28;20047;-69
2023/03/19 04:54:04;;;;;;;8.98;6.13;;;9.20;99.90;;;;;;4962929;28;20053;-68
2023/03/19 04:56:30;;;;;;;7.35;6.03;;;9.20;99.90;;;;;;4965778;28;20050;-68
2023/03/19 04:58:56;;;;;;;6.15;5.47;;;9.10;99.90;;;;;;4955107;28;20422;-69
2023/03/19 05:01:22;;;;;;;6.85;6.15;;;9.10;99.90;;;;;;4963281;28;20038;-68
2023/03/19 05:03:48;;;;;;;6.15;5.55;;;9.10;99.90;;;;;;4961465;28;20538;-68
2023/03/19 05:06:14;;;;;;;6.60;5.35;;;9.00;99.90;;;;;;4952022;28;20042;-69
2023/03/19 05:08:40;;;;;;;7.78;6.03;;;9.00;99.90;;;;;;4954904;28;20090;-68
2023/03/19 05:11:06;;;;;;;7.05;5.65;;;8.90;99.90;;;;;;4962038;28;20031;-70
2023/03/19 05:13:32;;;;;;;8.02;6.28;;;9.00;99.90;;;;;;4966257;28;20046;-68
2023/03/19 05:15:58;;;;;;;6.53;5.93;;;8.90;99.90;;;;;;4970756;28;20495;-69
2023/03/19 05:18:24;;;;;;;6.80;6.10;;;8.90;99.90;;;;;;4955875;28;20047;-68
2023/03/19 05:20:50;;;;;;;9.85;6.10;;;8.90;99.90;;;;;;4947281;28;20047;-68
2023/03/19 05:23:16;;;;;;;6.88;5.75;;;8.90;99.90;;;;;;4964151;28;20050;-68
2023/03/19 05:25:42;;;;;;;8.27;6.35;;;8.90;99.90;;;;;;4976569;28;20034;-68
2023/03/19 05:28:08;;;;;;;7.75;5.70;;;8.90;99.90;;;;;;4959397;28;20049;-68
2023/03/19 05:30:34;;;;;;;7.15;5.88;;;8.90;99.90;;;;;;4960469;28;20143;-68
2023/03/19 05:33:01;;;;;;;10.13;6.20;;;8.80;99.90;;;;;;4958298;28;20510;-69
2023/03/19 05:35:28;;;;;;;7.55;5.90;;;8.70;99.90;;;;;;4961556;28;20141;-68
2023/03/19 05:37:54;;;;;;;6.35;5.70;;;8.70;99.90;;;;;;4965390;28;20042;-69
2023/03/19 05:40:22;;;;;;;6.97;5.90;;;8.70;99.90;;;;;;4959221;28;20122;-69
2023/03/19 05:42:47;;;;;;;8.43;6.45;;;8.60;99.90;;;;;;4951753;28;20126;-69
2023/03/19 05:45:13;;;;;;;8.05;6.05;;;8.60;99.90;;;;;;4965003;28;20055;-68
2023/03/19 05:47:39;;;;;;;8.15;6.38;;;8.60;99.90;;;;;;4955690;28;20046;-68
2023/03/19 05:50:06;;;;;;;7.55;6.68;;;8.60;99.90;;;;;;4962187;28;20049;-68
2023/03/19 05:52:32;;;;;;;7.00;6.25;;;8.70;99.90;;;;;;4944157;28;20035;-68
2023/03/19 05:54:58;;;;;;;8.75;6.50;;;8.60;99.90;;;;;;4956119;28;20117;-68
2023/03/19 05:57:23;;;;;;;7.22;6.38;;;8.60;99.90;;;;;;4958080;28;20130;-69
2023/03/19 05:59:50;;;;;;;7.82;6.90;;;8.60;99.90;;;;;;4952257;28;20035;-68
2023/03/19 06:02:16;;;;;;;7.40;6.65;;;8.60;99.90;;;;;;4964505;28;20093;-70
2023/03/19 06:04:42;;;;;;;9.10;7.07;;;8.50;99.90;;;;;;4962782;28;20479;-68
2023/03/19 06:07:07;;;;;;;9.90;6.60;;;8.60;99.90;;;;;;4960606;28;20085;-68
2023/03/19 06:09:33;;;;;;;8.40;6.15;;;8.50;99.90;;;;;;4967101;28;20042;-68
2023/03/19 06:11:59;;;;;;;7.47;6.72;;;8.40;99.90;;;;;;4950619;28;20484;-68
2023/03/19 06:14:25;;;;;;;10.75;7.65;;;8.50;99.90;;;;;;4955140;28;20066;-68
2023/03/19 06:16:51;;;;;;;9.93;6.97;;;8.40;99.90;;;;;;4947959;28;20503;-68
2023/03/19 06:19:16;;;;;;;8.85;7.47;;;8.40;99.90;;;;;;4965182;28;20437;-68
2023/03/19 06:21:42;;;;;;;11.88;7.90;;;8.30;99.90;;;;;;4957406;28;20043;-68
2023/03/19 06:24:08;;;;;;;8.20;7.40;;;8.40;99.90;;;;;;4937910;28;20047;-69
2023/03/19 06:26:34;;;;;;;9.43;7.80;;;8.30;99.90;;;;;;4965873;28;20047;-68
2023/03/19 06:29:00;;;;;;;9.70;8.40;;;8.40;99.90;;;;;;4963133;28;20380;-69
2023/03/19 06:31:26;;;;;;;9.90;7.88;;;8.30;99.90;;;;;;4959680;28;20170;-69
2023/03/19 06:33:53;;;;;;;9.90;8.40;;;8.30;99.90;;;;;;4964157;28;20122;-68
2023/03/19 06:36:19;;;;;;;8.95;7.93;;;8.30;99.90;;;;;;4958994;28;20057;-69
2023/03/19 06:38:45;;;;;;;10.30;8.63;;;8.30;99.90;;;;;;4964174;28;20034;-69
2023/03/19 06:41:11;;;;;;;12.90;9.52;;;8.30;99.90;;;;;;4965397;28;20462;-70
2023/03/19 06:43:40;;;;;;;13.40;9.48;;;8.30;99.90;;;;;;4959377;28;20046;-69
2023/03/19 06:46:06;;;;;;;10.95;8.98;;;8.30;99.90;;;;;;4962404;28;20047;-69
2023/03/19 06:48:33;;;;;;;12.68;10.00;;;8.20;99.90;;;;;;4958460;28;20066;-69
2023/03/19 06:50:59;;;;;;;11.38;9.82;;;8.20;99.90;;;;;;4946736;28;20039;-69
2023/03/19 06:53:25;;;;;;;13.77;10.13;;;8.20;99.90;;;;;;4954747;28;20035;-70
2023/03/19 06:55:51;;;;;;;17.75;11.77;;;8.30;99.90;;;;;;4941175;28;20414;-69
2023/03/19 06:58:16;;;;;;;14.73;12.38;;;8.40;99.90;;;;;;4970927;28;20047;-69
2023/03/19 07:00:42;;;;;;;16.05;12.07;;;8.50;99.90;;;;;;4956924;28;20051;-68
2023/03/19 07:03:08;;;;;;;14.07;12.45;;;8.60;99.90;;;;;;4943838;29;20415;-68
2023/03/19 07:05:34;;;;;;;16.15;12.70;;;8.80;99.90;;;;;;4960160;28;20035;-69
2023/03/19 07:08:00;;;;;;;17.08;13.18;;;8.90;99.90;;;;;;4961232;28;20039;-69
2023/03/19 07:10:26;;;;;;;18.17;13.25;;;9.10;99.90;;;;;;4939832;28;20074;-68
2023/03/19 07:12:52;;;;;;;19.80;14.80;;;9.30;99.90;;;;;;4955739;28;20058;-68
2023/03/19 07:15:20;;;;;;;17.85;14.43;;;9.40;99.90;;;;;;4942426;28;20055;-68
2023/03/19 07:17:46;;;;;;;17.98;13.73;;;9.60;99.90;;;;;;4955525;28;20039;-69
2023/03/19 07:20:13;;;;;;;14.45;13.05;;;9.80;99.90;;;;;;4959205;28;20054;-69
2023/03/19 07:22:39;;;;;;;15.38;13.38;;;9.90;99.90;;;;;;4963237;28;20122;-69
2023/03/19 07:25:06;;;;;;;13.77;12.20;;;10.10;99.90;;;;;;4959113;28;21155;-69
2023/03/19 07:27:32;;;;;;;14.02;12.43;;;10.40;99.90;;;;;;4958196;28;20086;-70
2023/03/19 07:29:58;;;;;;;12.35;11.07;;;10.70;99.90;;;;;;4941395;28;20554;-69
2023/03/19 07:32:24;;;;;;;13.75;11.60;;;11.10;99.90;;;;;;4955801;28;20031;-69
2023/03/19 07:34:50;;;;;;;13.05;11.52;;;11.60;99.90;;;;;;4972397;28;20051;-69
2023/03/19 07:37:16;;;;;;;13.15;10.95;;;11.90;99.90;;;;;;4941068;28;20047;-69
2023/03/19 07:39:41;;;;;;;12.30;11.13;;;12.10;99.90;;;;;;4962339;28;20058;-68
2023/03/19 07:42:07;;;;;;;12.90;11.70;;;12.30;99.90;;;;;;4952283;28;20128;-69
2023/03/19 07:44:33;;;;;;;11.00;10.00;;;12.40;99.90;;;;;;4959239;28;20399;-70
2023/03/19 07:46:59;;;;;;;10.48;9.57;;;12.50;99.90;;;;;;4963789;28;20039;-69
2023/03/19 07:49:25;;;;;;;12.20;11.00;;;12.60;99.90;;;;;;4936513;28;20243;-70
2023/03/19 07:51:51;;;;;;;11.20;10.05;;;12.60;99.90;;;;;;4953499;28;20070;-70
2023/03/19 07:54:16;;;;;;;11.32;10.23;;;12.60;99.90;;;;;;4942870;28;20333;-70
2023/03/19 07:56:42;;;;;;;11.52;10.38;;;13.10;99.90;;;;;;4948499;28;20058;-70
2023/03/19 07:59:08;;;;;;;11.27;10.18;;;14.00;99.90;;;;;;4961830;28;21231;-67
2023/03/19 08:01:34;;;;;;;11.55;10.55;;;14.90;99.90;;;;;;4960329;28;20035;-68
2023/03/19 08:04:00;;;;;;;10.98;9.98;;;15.70;99.90;;;;;;4964388;28;20177;-68
2023/03/19 08:06:26;;;;;;;9.43;8.52;;;16.60;99.90;;;;;;4961360;28;20555;-68
2023/03/19 08:08:51;;;;;;;10.02;9.15;;;17.20;99.90;;;;;;4962731;28;20035;-68
2023/03/19 08:11:17;;;;;;;10.38;9.38;;;17.60;99.90;;;;;;4963766;28;20115;-68
2023/03/19 08:13:43;;;;;;;10.68;9.68;;;17.30;99.90;;;;;;4965379;28;20097;-68
2023/03/19 08:16:09;;;;;;;10.45;9.55;;;16.60;99.90;;;;;;4965377;28;20042;-69
2023/03/19 08:18:35;;;;;;;10.95;9.95;;;16.00;99.90;;;;;;4964414;28;20039;-67
2023/03/19 08:21:01;;;;;;;10.82;9.90;;;15.40;99.90;;;;;;4967185;28;20042;-68
2023/03/19 08:23:27;;;;;;;10.57;9.52;;;14.90;99.90;;;;;;4962369;28;20077;-68
2023/03/19 08:25:54;;;;;;;10.85;9.82;;;14.70;99.90;;;;;;4960996;28;20039;-67
2023/03/19 08:28:20;;;;;;;10.32;9.32;;;14.60;99.90;;;;;;4965707;28;20347;-68
2023/03/19 08:30:46;;;;;;;10.43;9.43;;;14.20;99.90;;;;;;4965176;28;20598;-68
2023/03/19 08:33:12;;;;;;;10.57;9.57;;;13.70;99.90;;;;;;4965096;28;20053;-68
2023/03/19 08:35:37;;;;;;;10.25;9.35;;;13.40;99.90;;;;;;4958031;28;20081;-68
2023/03/19 08:38:04;;;;;;;9.95;8.95;;;13.10;99.90;;;;;;4964545;28;20039;-68
2023/03/19 08:40:30;;;;;;;10.50;9.50;;;13.00;99.90;;;;;;4962883;28;20047;-68
2023/03/19 08:42:55;;;;;;;9.77;8.98;;;12.80;99.90;;;;;;4962741;28;20407;-69
2023/03/19 08:45:22;;;;;;;10.40;9.43;;;12.70;99.90;;;;;;4959863;28;20410;-68
2023/03/19 08:47:48;;;;;;;8.80;8.00;;;12.60;99.90;;;;;;4961451;28;20447;-69
2023/03/19 08:50:14;;;;;;;8.93;8.13;;;12.40;99.90;;;;;;4963876;28;20070;-68
2023/03/19 08:52:40;;;;;;;9.07;8.07;;;12.30;99.90;;;;;;4959564;28;20405;-69
2023/03/19 08:55:07;;;;;;;9.50;8.27;;;12.20;99.90;;;;;;4946211;28;20483;-68
2023/03/19 08:57:34;;;;;;;9.25;8.35;;;12.10;99.90;;;;;;4966314;28;20038;-67
2023/03/19 09:00:00;;;;;;;9.05;8.20;;;12.10;99.90;;;;;;4959399;28;20042;-68
2023/03/19 09:02:26;;;;;;;9.70;8.45;;;12.10;99.90;;;;;;4961231;28;20046;-73
2023/03/19 09:04:52;;;;;;;9.65;8.75;;;12.10;99.90;;;;;;4954947;28;20047;-74
2023/03/19 09:07:18;;;;;;;9.75;8.85;;;12.10;99.90;;;;;;4944016;28;20098;-74
2023/03/19 09:09:44;;;;;;;11.10;10.10;;;12.10;99.90;;;;;;4975673;28;20046;-68
2023/03/19 09:12:14;;;;;;;9.07;8.27;;;12.00;99.90;;;;;;4954870;28;20035;-67
2023/03/19 09:14:40;;;;;;;9.98;9.07;;;12.10;99.90;;;;;;4943622;28;20043;-67
2023/03/19 09:17:06;;;;;;;10.70;9.27;;;12.20;99.90;;;;;;4954197;28;20070;-67
2023/03/19 09:19:32;;;;;;;9.80;8.90;;;12.20;99.90;;;;;;4961197;28;20102;-68
2023/03/19 09:21:59;;;;;;;9.90;8.90;;;12.30;99.90;;;;;;4962595;28;20395;-68
2023/03/19 09:24:44;;;;;;;10.00;9.05;;;12.40;99.90;;;;;;4959125;28;20400;-69
2023/03/19 09:27:13;;;;;;;10.30;9.07;;;12.50;99.90;;;;;;4960199;28;20050;-68
2023/03/19 09:29:40;;;;;;;9.88;8.98;;;12.50;99.90;;;;;;4964786;28;20051;-68
2023/03/19 09:32:05;;;;;;;10.02;9.00;;;12.70;99.90;;;;;;4957740;28;20055;-68
2023/03/19 09:34:31;;;;;;;9.30;8.50;;;12.80;99.90;;;;;;4959672;28;20049;-67
2023/03/19 09:36:57;;;;;;;10.13;9.13;;;12.90;99.90;;;;;;4944530;28;20081;-67
2023/03/19 09:39:23;;;;;;;9.32;8.32;;;13.00;99.90;;;;;;4959054;28;20500;-67
2023/03/19 09:42:06;;;;;;;9.93;9.00;;;13.00;99.90;;;;;;4963677;28;20034;-68
2023/03/19 09:44:38;;;;;;;9.90;9.00;;;13.00;99.90;;;;;;4966243;28;20066;-69
2023/03/19 09:47:25;;;;;;;10.25;9.35;;;12.90;99.90;;;;;;4957299;28;20043;-68
2023/03/19 09:49:53;;;;;;;10.32;9.43;;;12.80;99.90;;;;;;4960163;28;20035;-68
2023/03/19 09:52:33;;;;;;;11.20;10.20;;;12.70;99.90;;;;;;4953708;28;20065;-67
2023/03/19 09:55:11;;;;;;;10.95;9.88;;;12.70;99.90;;;;;;4958457;28;20095;-68
2023/03/19 09:57:38;;;;;;;10.35;9.25;;;12.70;99.90;;;;;;4960619;28;20054;-68
2023/03/19 10:00:21;;;;;;;10.95;9.80;;;12.70;99.90;;;;;;4963650;28;20506;-68
2023/03/19 10:03:04;;;;;;;10.65;9.63;;;12.70;99.90;;;;;;4951752;28;20396;-68
2023/03/19 10:05:55;;;;;;;11.13;10.05;;;12.70;99.90;;;;;;4973134;28;20450;-67
2023/03/19 10:08:57;;;;;;;10.73;9.80;;;12.60;99.90;;;;;;4959960;28;20499;-67
2023/03/19 10:11:30;;;;;;;12.18;11.07;;;12.60;99.90;;;;;;4959196;28;20046;-69
2023/03/19 10:14:17;;;;;;;13.07;11.77;;;12.50;99.90;;;;;;4972276;28;20047;-67
2023/03/19 10:16:47;;;;;;;12.75;11.50;;;12.40;99.90;;;;;;4959876;28;20375;-67
2023/03/19 10:19:17;;;;;;;14.05;12.40;;;12.30;99.90;;;;;;4962137;28;20510;-68
2023/03/19 10:21:49;;;;;;;14.02;12.55;;;12.30;99.90;;;;;;4958962;28;20127;-69
2023/03/19 10:24:23;;;;;;;13.88;12.52;;;12.30;99.90;;;;;;4962569;28;20047;-67
2023/03/19 10:26:57;;;;;;;14.65;13.25;;;12.30;99.90;;;;;;4963332;28;20049;-68
2023/03/19 10:29:23;;;;;;;13.52;12.23;;;12.30;99.90;;;;;;4961539;28;20132;-67
2023/03/19 10:32:17;;;;;;;14.43;12.63;;;12.30;99.90;;;;;;4954006;28;20511;-68
2023/03/19 10:34:44;;;;;;;15.60;14.05;;;12.30;99.90;;;;;;4960285;28;20125;-68
2023/03/19 10:37:19;;;;;;;14.10;12.70;;;12.30;99.90;;;;;;4973502;28;20111;-68
2023/03/19 10:39:47;;;;;;;15.57;14.10;;;12.30;99.90;;;;;;4954233;28;20047;-68
2023/03/19 10:42:40;;;;;;;14.93;13.52;;;12.40;99.90;;;;;;4959287;28;20185;-68
2023/03/19 10:45:20;;;;;;;15.13;13.55;;;12.50;99.90;;;;;;4976068;28;20085;-68
2023/03/19 10:47:46;;;;;;;14.55;13.05;;;12.60;99.90;;;;;;4957142;28;20462;-70
2023/03/19 10:50:18;;;;;;;15.27;13.70;;;12.60;99.90;;;;;;4956006;28;20051;-68
2023/03/19 10:52:48;;;;;;;14.68;13.27;;;12.70;99.90;;;;;;4959673;28;20042;-68
2023/03/19 10:55:15;;;;;;;15.05;13.65;;;12.70;99.90;;;;;;4958702;28;20140;-67
2023/03/19 10:57:43;;;;;;;14.68;13.27;;;12.80;99.90;;;;;;4939068;28;20043;-68
2023/03/19 11:00:17;;;;;;;16.00;14.40;;;12.90;99.90;;;;;;4962843;28;20039;-67
2023/03/19 11:02:52;;;;;;;16.13;14.35;;;13.00;99.90;;;;;;4956702;28;20126;-67
2023/03/19 11:05:25;;;;;;;15.40;13.90;;;13.10;99.90;;;;;;4961169;28;20451;-68
2023/03/19 11:07:56;;;;;;;14.55;13.10;;;13.10;99.90;;;;;;4942979;28;20043;-68
2023/03/19 11:10:25;;;;;;;14.50;13.15;;;13.10;99.90;;;;;;4956985;28;20062;-68
2023/03/19 11:12:56;;;;;;;14.23;12.73;;;13.00;99.90;;;;;;4972514;28;20113;-68
2023/03/19 11:15:32;;;;;;;14.45;13.02;;;13.00;99.90;;;;;;4958131;28;20549;-66
2023/03/19 11:18:05;;;;;;;13.80;12.45;;;13.00;99.90;;;;;;4955683;28;20503;-67
2023/03/19 11:20:36;;;;;;;13.75;12.45;;;13.00;99.90;;;;;;4962101;28;20122;-67
2023/03/19 11:23:11;;;;;;;13.13;11.93;;;13.10;99.90;;;;;;4958563;28;20066;-69
2023/03/19 11:25:46;;;;;;;13.52;12.20;;;13.10;99.90;;;;;;4960443;28;20428;-68
2023/03/19 11:28:17;;;;;;;13.20;11.88;;;13.10;99.90;;;;;;4961688;28;20039;-68
2023/03/19 11:31:08;;;;;;;13.43;12.10;;;13.10;99.90;;;;;;4942494;28;20109;-69
2023/03/19 11:34:03;;;;;;;14.55;13.15;;;13.20;99.90;;;;;;4957779;28;20043;-69
2023/03/19 11:36:40;;;;;;;11.95;10.75;;;14.00;99.90;;;;;;4971732;28;20086;-70
2023/03/19 11:39:20;;;;;;;12.43;11.23;;;15.60;99.90;;;;;;4980738;28;20039;-70
2023/03/19 11:42:09;;;;;;;15.75;14.10;;;16.50;99.90;;;;;;4973014;28;20491;-71
2023/03/19 11:44:43;;;;;;;12.70;11.60;;;16.80;99.90;;;;;;4965629;28;20074;-70
2023/03/19 11:47:14;;;;;;;;;;;16.60;99.90;;;;;;4978349;28;20081;-70
2023/03/19 11:49:48;;;;;;;11.90;10.80;;;16.10;99.90;;;;;;4979589;28;19961;-70
2023/03/19 11:52:21;;;;;;;15.02;13.23;;;15.90;99.90;;;;;;4981622;28;20485;-70
2023/03/19 11:55:18;;;;;;;12.93;11.65;;;15.50;99.90;;;;;;4980644;28;20090;-70
2023/03/19 11:57:56;;;;;;;13.45;12.05;;;15.30;99.90;;;;;;4975265;28;20066;-70
2023/03/19 12:00:46;;;;;;;12.52;11.32;;;15.40;99.90;;;;;;4981614;28;20074;-69
2023/03/19 12:03:27;;;;;;;14.68;13.05;;;15.40;99.90;;;;;;4983344;28;20047;-69
2023/03/19 12:06:00;;;;;;;13.45;12.23;;;15.30;99.90;;;;;;4962756;28;20063;-69
2023/03/19 12:08:31;;;;;;;14.18;12.27;;;15.70;99.90;;;;;;4983309;28;20082;-69
2023/03/19 12:11:12;;;;;;;12.55;11.45;;;16.60;99.90;;;;;;4979495;28;20040;-69
2023/03/19 12:13:43;;;;;;;13.18;11.98;;;16.80;99.90;;;;;;4976652;28;20151;-69
2023/03/19 12:16:29;;;;;;;13.48;12.07;;;17.20;99.90;;;;;;4974029;28;20050;-69
2023/03/19 12:19:10;;;;;;;11.93;10.93;;;17.80;99.90;;;;;;4974752;28;20058;-69
2023/03/19 12:21:48;;;;;;;12.18;10.50;;;17.50;99.90;;;;;;4976484;28;20082;-69
2023/03/19 12:24:22;;;;;;;10.82;9.85;;;17.40;99.90;;;;;;4975783;28;20058;-69
2023/03/19 12:27:04;;;;;;;11.20;10.13;;;17.50;99.90;;;;;;4969586;28;20041;-69
2023/03/19 12:29:42;;;;;;;11.50;10.40;;;17.00;99.90;;;;;;4978344;28;20061;-69
2023/03/19 12:32:56;;;;;;;10.77;9.68;;;16.60;99.90;;;;;;4976061;28;20150;-69
2023/03/19 12:35:30;;;;;;;11.33;10.07;;;16.10;99.90;;;;;;4957572;28;20067;-69
2023/03/19 12:38:11;;;;;;;11.32;10.32;;;15.90;99.90;;;;;;4958937;28;20043;-69
2023/03/19 12:40:48;;;;;;;10.75;9.52;;;15.90;99.90;;;;;;4957477;28;20039;-69
2023/03/19 12:43:20;;;;;;;10.43;9.48;;;16.60;99.90;;;;;;4986732;28;20530;-69
2023/03/19 12:46:01;;;;;;;11.20;10.20;;;17.00;99.90;;;;;;4981170;28;20047;-69
2023/03/19 12:48:41;;;;;;;11.38;10.25;;;17.30;99.90;;;;;;4977965;28;20050;-69
2023/03/19 12:51:10;;;;;;;11.60;10.60;;;17.30;99.90;;;;;;4981748;28;20043;-69